Terminal Aerodrome Forecast
Issued by NWS Louisville, KY

Home | Current Version | Previous Version | Text Only | Print | Product List | Glossary On
Versions: 1 2 3 4 5 6 7 8 9 10 11 12 13 14 15 16 17
000
FTUS43 KLMK 210500
TAFSDF
TAF
KSDF 210537Z 2106/2212 35009KT P6SM BKN035
     FM210800 33008KT P6SM BKN025
      TEMPO 2110/2114 BKN015
     FM211600 33011KT P6SM BKN035
     FM220000 VRB04KT P6SM SCT035=

USA.gov is the U.S. government's official web portal to all federal, state and local government web resources and services.